C35

Reedsburg Municipal Airport

Reedsburg, Wisconsin, USA
METAR KC35 151855Z AUTO 27011KT 10SM CLR M11/M17 A2997 RMK AO2 T11061173
Observed Flight Rules
Feb-15 @ 18:55 UTC (14 minutes ago) Visual Flight Rules
Wind Visibility Clouds
270° at 11 knots 10 miles
  • Clear skies
Temperatures Readings
Current -11°C / 12°F
Dewpoint -17°C / 1°F
Humidity 62%
Altimeter 29.97" Hg
Pressure 1014.92 hPa
Elevation 276
METAR KC35 151855Z AUTO 27011KT 10SM CLR M11/M17 A2997 RMK AO2 T11061173
Observed Flight Rules
Feb-15 @ 18:55 UTC
(14 minutes ago)
VFR
Wind Visibility
270° at 11 knots 10 miles
Clouds
  • Clear skies
Temperature Dewpoint
-11°C / 12°F -17°C / 1°F
Humidity Altimeter Pressure
62% 29.97" Hg 1014.92 hPa